createdAt,value
2017-10-20T00:00:02.549Z,17.2
2017-10-20T00:05:03.022Z,17.2
2017-10-20T00:10:02.672Z,17.2
2017-10-20T00:15:03.230Z,17.0
2017-10-20T00:20:02.875Z,17.0
2017-10-20T00:25:02.371Z,17.0
2017-10-20T00:30:02.865Z,16.7
2017-10-20T00:35:03.310Z,16.7
2017-10-20T00:40:02.974Z,16.7
2017-10-20T00:45:02.560Z,16.7
2017-10-20T00:50:03.132Z,17.0
2017-10-20T00:55:02.903Z,15.6
2017-10-20T01:00:02.388Z,14.3
2017-10-20T01:05:02.991Z,14.3
2017-10-20T01:10:02.561Z,14.3
2017-10-20T01:15:03.069Z,14.1
2017-10-20T01:20:02.724Z,14.1
2017-10-20T01:25:03.101Z,14.1
2017-10-20T01:30:02.657Z,14.1
2017-10-20T01:35:03.008Z,14.1
2017-10-20T01:40:02.794Z,14.1
2017-10-20T01:45:03.298Z,14.0
2017-10-20T01:50:02.946Z,14.0
2017-10-20T01:55:02.381Z,14.0
2017-10-20T02:00:02.943Z,13.8
2017-10-20T02:05:03.094Z,13.8
2017-10-20T02:10:02.710Z,13.8
2017-10-20T02:15:03.255Z,13.6
2017-10-20T02:20:02.741Z,13.8
2017-10-20T02:25:03.353Z,13.8
2017-10-20T02:30:02.755Z,13.6
2017-10-20T02:35:03.241Z,13.8
2017-10-20T02:40:02.695Z,13.8
2017-10-20T02:45:03.292Z,13.6
2017-10-20T02:50:02.779Z,13.6
2017-10-20T02:55:03.393Z,13.6
2017-10-20T03:00:02.884Z,13.6
2017-10-20T03:05:02.450Z,13.6
2017-10-20T03:10:03.130Z,13.6
2017-10-20T03:15:02.493Z,13.6
2017-10-20T03:20:02.957Z,13.6
2017-10-20T03:25:03.379Z,13.6
2017-10-20T03:30:02.940Z,13.6
2017-10-20T03:35:02.538Z,13.6
2017-10-20T03:40:03.079Z,13.6
2017-10-20T03:45:02.612Z,13.6
2017-10-20T03:50:03.336Z,13.6
2017-10-20T03:55:02.832Z,13.6
2017-10-20T04:00:03.426Z,13.6
2017-10-20T04:05:02.927Z,13.6
2017-10-20T04:10:02.586Z,13.6
2017-10-20T04:15:03.148Z,13.6
2017-10-20T04:20:02.847Z,13.5
2017-10-20T04:25:02.394Z,13.6
2017-10-20T04:30:03.238Z,13.6
2017-10-20T04:35:02.793Z,13.5
2017-10-20T04:40:02.457Z,13.5
2017-10-20T04:45:02.904Z,13.5
2017-10-20T04:50:03.342Z,13.5
2017-10-20T04:55:02.889Z,13.5
2017-10-20T05:00:02.465Z,13.6
2017-10-20T05:05:02.878Z,13.6
2017-10-20T05:10:02.368Z,13.6
2017-10-20T05:15:03.006Z,13.5
2017-10-20T05:20:02.668Z,13.5
2017-10-20T05:25:03.252Z,13.6
2017-10-20T05:30:02.744Z,13.6
2017-10-20T05:35:03.356Z,13.6
2017-10-20T05:40:02.856Z,13.6
2017-10-20T05:45:03.290Z,13.6
2017-10-20T05:50:02.829Z,13.6
2017-10-20T05:55:02.400Z,13.6
2017-10-20T06:00:02.911Z,13.6
2017-10-20T06:05:03.327Z,13.5
2017-10-20T06:10:02.980Z,13.5
2017-10-20T06:15:02.492Z,13.5
2017-10-20T06:20:03.057Z,13.5
2017-10-20T06:25:02.584Z,13.5
2017-10-20T06:30:03.099Z,13.3
2017-10-20T06:35:02.726Z,13.3
2017-10-20T06:40:03.252Z,13.3
2017-10-20T06:45:02.797Z,13.3
2017-10-20T06:50:02.352Z,13.5
2017-10-20T06:55:02.975Z,13.5
2017-10-20T07:00:02.388Z,13.5
2017-10-20T07:05:02.894Z,13.5
2017-10-20T07:10:02.410Z,13.5
2017-10-20T07:15:02.879Z,13.5
2017-10-20T07:20:02.495Z,13.5
2017-10-20T07:25:03.027Z,13.5
2017-10-20T07:30:02.735Z,13.5
2017-10-20T07:35:03.156Z,13.6
2017-10-20T07:40:02.786Z,13.6
2017-10-20T07:45:03.249Z,13.6
2017-10-20T07:50:02.800Z,13.6
2017-10-20T07:55:03.350Z,13.6
2017-10-20T08:00:02.893Z,13.6
2017-10-20T08:05:03.316Z,13.6
2017-10-20T08:10:02.845Z,13.6
2017-10-20T08:15:03.369Z,13.6
2017-10-20T08:20:02.930Z,13.6
2017-10-20T08:25:02.361Z,13.8
2017-10-20T08:30:02.968Z,13.6
2017-10-20T08:35:02.544Z,13.6
2017-10-20T08:40:03.160Z,13.6
2017-10-20T08:45:02.742Z,13.6
2017-10-20T08:50:03.241Z,14.0
2017-10-20T08:55:02.691Z,14.6
2017-10-20T09:00:03.289Z,14.3
2017-10-20T09:05:02.766Z,14.8
2017-10-20T09:10:03.315Z,14.6
2017-10-20T09:15:02.735Z,15.1
2017-10-20T09:20:03.246Z,14.6
2017-10-20T09:25:02.708Z,16.3
2017-10-20T09:30:03.192Z,15.6
2017-10-20T09:35:02.711Z,15.3
2017-10-20T09:40:03.177Z,16.0
2017-10-20T09:45:02.743Z,16.6
2017-10-20T09:50:03.234Z,17.0
2017-10-20T09:55:02.661Z,16.6
2017-10-20T10:00:03.197Z,16.6
2017-10-20T10:05:02.619Z,16.7
2017-10-20T10:10:03.171Z,16.7
2017-10-20T10:15:02.567Z,16.7
2017-10-20T10:20:03.260Z,16.0
2017-10-20T10:25:02.679Z,16.7
2017-10-20T10:30:03.278Z,15.8
2017-10-20T10:35:02.746Z,15.8
2017-10-20T10:40:03.195Z,15.5
2017-10-20T10:45:02.740Z,16.3
2017-10-20T10:50:02.359Z,16.2
2017-10-20T10:55:03.000Z,15.8
2017-10-20T11:00:02.456Z,15.8
2017-10-20T11:05:02.883Z,15.8
2017-10-20T11:10:02.406Z,15.6
2017-10-20T11:15:02.838Z,15.6
2017-10-20T11:20:03.290Z,15.5
2017-10-20T11:25:02.744Z,15.5
2017-10-20T11:30:03.309Z,16.0
2017-10-20T11:35:02.774Z,15.8
2017-10-20T11:40:02.392Z,15.6
2017-10-20T11:45:02.860Z,15.5
2017-10-20T11:50:03.301Z,15.8
2017-10-20T11:55:02.804Z,16.0
2017-10-20T12:00:02.380Z,16.3
2017-10-20T12:05:02.818Z,16.2
2017-10-20T12:10:02.368Z,15.5
2017-10-20T12:15:02.938Z,15.3
2017-10-20T12:20:02.519Z,15.3
2017-10-20T12:25:03.094Z,15.3
2017-10-20T12:30:02.472Z,15.1
2017-10-20T12:35:02.917Z,15.0
2017-10-20T12:40:02.371Z,15.0
2017-10-20T12:45:02.963Z,14.8
2017-10-20T12:50:02.472Z,14.3
2017-10-20T12:55:02.864Z,13.8
2017-10-20T13:00:03.431Z,13.6
2017-10-20T13:05:03.078Z,13.3
2017-10-20T13:10:02.666Z,12.5
2017-10-20T13:15:03.231Z,12.1
2017-10-20T13:20:02.837Z,12.1
2017-10-20T13:25:02.375Z,12.0
2017-10-20T13:30:02.972Z,12.0
2017-10-20T13:35:02.606Z,12.0
2017-10-20T13:40:03.259Z,12.0
2017-10-20T13:45:02.799Z,11.8
2017-10-20T13:50:02.390Z,12.1
2017-10-20T13:55:02.928Z,12.1
2017-10-20T14:00:02.503Z,12.1
2017-10-20T14:05:03.015Z,12.1
2017-10-20T14:10:02.482Z,12.1
2017-10-20T14:15:02.943Z,12.1
2017-10-20T14:20:02.454Z,12.1
2017-10-20T14:25:02.931Z,12.1
2017-10-20T14:30:02.442Z,12.1
2017-10-20T14:35:03.052Z,12.1
2017-10-20T14:40:02.673Z,12.1
2017-10-20T14:45:03.101Z,12.1
2017-10-20T14:50:02.709Z,12.1
2017-10-20T14:55:03.323Z,12.1
2017-10-20T15:00:02.873Z,13.5
2017-10-20T15:05:02.363Z,13.6
2017-10-20T15:10:02.962Z,13.6
2017-10-20T15:15:02.375Z,13.6
2017-10-20T15:20:02.995Z,13.6
2017-10-20T15:25:02.405Z,13.6
2017-10-20T15:30:02.757Z,13.6
2017-10-20T15:35:03.245Z,13.6
2017-10-20T15:40:02.724Z,13.6
2017-10-20T15:45:03.249Z,13.6
2017-10-20T15:50:02.863Z,13.6
2017-10-20T15:55:02.413Z,13.6
2017-10-20T16:00:02.925Z,13.6
2017-10-20T16:05:02.563Z,13.6
2017-10-20T16:10:03.120Z,13.6
2017-10-20T16:15:02.589Z,13.6
2017-10-20T16:20:03.033Z,13.6
2017-10-20T16:25:02.454Z,13.6
2017-10-20T16:30:03.008Z,13.6
2017-10-20T16:35:02.524Z,13.6
2017-10-20T16:40:03.035Z,13.6
2017-10-20T16:45:02.506Z,13.6
2017-10-20T16:50:02.985Z,13.5
2017-10-20T16:55:02.408Z,13.6
2017-10-20T17:00:03.023Z,13.6
2017-10-20T17:05:02.621Z,13.6
2017-10-20T17:10:03.142Z,13.6
2017-10-20T17:15:02.639Z,13.6
2017-10-20T17:20:03.294Z,13.6
2017-10-20T17:25:02.841Z,13.6
2017-10-20T17:30:02.515Z,13.6
2017-10-20T17:35:02.963Z,13.6
2017-10-20T17:40:02.533Z,13.6
2017-10-20T17:45:03.025Z,13.6
2017-10-20T17:50:02.571Z,13.6
2017-10-20T17:55:03.006Z,13.6
2017-10-20T18:00:02.515Z,13.6
2017-10-20T18:05:03.033Z,13.6
2017-10-20T18:10:02.645Z,13.6
2017-10-20T18:15:03.210Z,13.6
2017-10-20T18:20:02.642Z,13.6
2017-10-20T18:25:03.166Z,13.6
2017-10-20T18:30:02.563Z,13.6
2017-10-20T18:35:03.014Z,13.6
2017-10-20T18:40:02.713Z,13.6
2017-10-20T18:45:03.253Z,13.6
2017-10-20T18:50:02.658Z,13.6
2017-10-20T18:55:03.123Z,13.6
2017-10-20T19:00:02.607Z,13.6
2017-10-20T19:05:03.233Z,13.6
2017-10-20T19:10:02.683Z,13.5
2017-10-20T19:15:03.264Z,13.5
2017-10-20T19:20:02.872Z,13.5
2017-10-20T19:25:03.250Z,13.3
2017-10-20T19:30:02.765Z,13.3
2017-10-20T19:35:03.240Z,13.3
2017-10-20T19:40:02.835Z,13.1
2017-10-20T19:45:03.302Z,13.1
2017-10-20T19:50:02.703Z,13.1
2017-10-20T19:55:03.134Z,13.1
2017-10-20T20:00:02.499Z,13.1
2017-10-20T20:05:02.931Z,13.1
2017-10-20T20:10:02.614Z,13.1
2017-10-20T20:15:03.033Z,13.1
2017-10-20T20:20:02.403Z,13.1
2017-10-20T20:25:02.910Z,13.1
2017-10-20T20:30:03.334Z,13.1
2017-10-20T20:35:02.813Z,13.1
2017-10-20T20:40:02.457Z,12.8
2017-10-20T20:45:02.841Z,12.8
2017-10-20T20:50:03.319Z,12.6
2017-10-20T20:55:02.859Z,12.5
2017-10-20T21:00:03.366Z,12.3
2017-10-20T21:05:02.836Z,12.1
2017-10-20T21:10:03.312Z,12.1
2017-10-20T21:15:02.857Z,12.1
2017-10-20T21:20:02.437Z,12.1
2017-10-20T21:25:02.858Z,12.0
2017-10-20T21:30:02.402Z,12.1
2017-10-20T21:35:02.984Z,12.0
2017-10-20T21:40:02.593Z,11.8
2017-10-20T21:45:03.005Z,11.8
2017-10-20T21:50:02.621Z,11.8
2017-10-20T21:55:03.168Z,11.8
2017-10-20T22:00:02.706Z,11.6
2017-10-20T22:05:03.077Z,11.6
2017-10-20T22:10:02.653Z,11.6
2017-10-20T22:15:03.241Z,11.6
2017-10-20T22:20:02.828Z,11.6
2017-10-20T22:25:02.424Z,11.6
2017-10-20T22:30:02.815Z,11.6
2017-10-20T22:35:02.384Z,11.6
2017-10-20T22:40:02.821Z,11.3
2017-10-20T22:45:03.352Z,11.3
2017-10-20T22:50:02.825Z,11.3
2017-10-20T22:55:03.292Z,11.3
2017-10-20T23:00:03.405Z,11.3
2017-10-20T23:05:02.477Z,11.1
2017-10-20T23:10:02.962Z,11.1
2017-10-20T23:15:02.413Z,11.1
2017-10-20T23:20:02.897Z,11.1
2017-10-20T23:25:02.424Z,11.0
2017-10-20T23:30:02.825Z,10.8
2017-10-20T23:35:03.294Z,10.8
2017-10-20T23:40:02.766Z,10.8
2017-10-20T23:45:03.257Z,10.8
2017-10-20T23:50:02.923Z,10.8
2017-10-20T23:55:03.297Z,10.8
